createdAt,value
2022-09-10T00:01:16.245Z,13.70
2022-09-10T00:03:46.238Z,13.70
2022-09-10T00:06:13.094Z,13.70
2022-09-10T00:08:40.286Z,13.70
2022-09-10T00:11:08.833Z,13.80
2022-09-10T00:13:37.373Z,13.70
2022-09-10T00:16:05.261Z,13.70
2022-09-10T00:18:32.986Z,13.70
2022-09-10T00:21:00.318Z,13.60
2022-09-10T00:23:28.296Z,13.60
2022-09-10T00:25:55.897Z,13.60
2022-09-10T00:28:23.621Z,13.60
2022-09-10T00:30:51.478Z,13.60
2022-09-10T00:33:19.526Z,13.60
2022-09-10T00:35:46.781Z,13.60
2022-09-10T00:38:14.769Z,13.60
2022-09-10T00:40:41.620Z,13.60
2022-09-10T00:43:16.834Z,13.60
2022-09-10T00:45:44.343Z,13.60
2022-09-10T00:48:15.441Z,13.70
2022-09-10T00:50:43.063Z,13.70
2022-09-10T00:53:12.928Z,13.70
2022-09-10T00:55:40.885Z,13.70
2022-09-10T00:58:10.310Z,13.70
2022-09-10T01:00:38.014Z,13.70
2022-09-10T01:03:06.459Z,13.70
2022-09-10T01:05:34.276Z,13.60
2022-09-10T01:08:01.360Z,13.70
2022-09-10T01:10:30.871Z,13.70
2022-09-10T01:13:00.841Z,13.70
2022-09-10T01:15:27.942Z,13.70
2022-09-10T01:18:13.094Z,13.60
2022-09-10T01:21:00.839Z,13.70
2022-09-10T01:23:27.639Z,13.70
2022-09-10T01:26:09.536Z,13.70
2022-09-10T01:28:49.186Z,13.60
2022-09-10T01:31:36.264Z,13.60
2022-09-10T01:34:06.489Z,13.60
2022-09-10T01:36:35.195Z,13.60
2022-09-10T01:39:02.590Z,13.60
2022-09-10T01:41:29.444Z,13.50
2022-09-10T01:43:56.769Z,13.50
2022-09-10T01:46:50.347Z,13.50
2022-09-10T01:49:18.508Z,13.50
2022-09-10T01:51:49.092Z,13.50
2022-09-10T01:54:18.964Z,13.50
2022-09-10T01:56:51.932Z,13.50
2022-09-10T01:59:21.949Z,13.50
2022-09-10T02:01:50.720Z,13.50
2022-09-10T02:04:17.968Z,13.50
2022-09-10T02:06:46.890Z,13.50
2022-09-10T02:09:15.038Z,13.50
2022-09-10T02:11:52.891Z,13.50
2022-09-10T02:14:22.033Z,13.50
2022-09-10T02:16:54.186Z,13.50
2022-09-10T02:19:21.349Z,13.50
2022-09-10T02:21:48.401Z,13.50
2022-09-10T02:24:15.280Z,13.50
2022-09-10T02:26:43.307Z,13.50
2022-09-10T02:29:12.235Z,13.50
2022-09-10T02:31:39.304Z,13.50
2022-09-10T02:34:06.643Z,13.50
2022-09-10T02:36:33.557Z,13.50
2022-09-10T02:39:03.012Z,13.50
2022-09-10T02:41:34.322Z,13.50
2022-09-10T02:44:02.130Z,13.50
2022-09-10T02:46:29.388Z,13.50
2022-09-10T02:48:56.257Z,13.50
2022-09-10T02:51:23.744Z,13.50
2022-09-10T02:53:50.651Z,13.50
2022-09-10T02:56:19.715Z,13.50
2022-09-10T02:58:46.742Z,13.50
2022-09-10T03:01:15.740Z,13.50
2022-09-10T03:03:42.851Z,13.50
2022-09-10T03:06:10.119Z,13.50
2022-09-10T03:08:37.288Z,13.50
2022-09-10T03:11:04.582Z,13.50
2022-09-10T03:13:31.445Z,13.50
2022-09-10T03:15:58.988Z,13.50
2022-09-10T03:18:26.044Z,13.50
2022-09-10T03:20:52.901Z,13.50
2022-09-10T03:23:19.878Z,13.50
2022-09-10T03:25:49.797Z,13.50
2022-09-10T03:28:16.960Z,13.50
2022-09-10T03:30:43.862Z,13.50
2022-09-10T03:33:11.939Z,13.50
2022-09-10T03:35:38.902Z,13.50
2022-09-10T03:38:06.078Z,13.50
2022-09-10T03:40:34.232Z,13.50
2022-09-10T03:43:01.390Z,13.50
2022-09-10T03:45:28.812Z,13.50
2022-09-10T03:47:55.729Z,13.50
2022-09-10T03:50:22.647Z,13.50
2022-09-10T03:52:50.416Z,13.50
2022-09-10T03:55:18.065Z,13.50
2022-09-10T03:57:45.848Z,13.50
2022-09-10T04:00:12.763Z,13.50
2022-09-10T04:02:41.813Z,13.50
2022-09-10T04:05:08.970Z,13.50
2022-09-10T04:07:36.948Z,13.50
2022-09-10T04:10:04.021Z,13.50
2022-09-10T04:12:30.902Z,13.50
2022-09-10T04:14:57.772Z,13.50
2022-09-10T04:17:25.538Z,13.50
2022-09-10T04:19:52.432Z,13.50
2022-09-10T04:22:19.312Z,13.50
2022-09-10T04:24:46.256Z,13.50
2022-09-10T04:27:13.894Z,13.50
2022-09-10T04:29:41.196Z,13.50
2022-09-10T04:32:08.049Z,13.50
2022-09-10T04:34:35.011Z,13.50
2022-09-10T04:37:01.855Z,13.50
2022-09-10T04:39:28.720Z,13.50
2022-09-10T04:41:55.533Z,13.50
2022-09-10T04:44:22.439Z,13.50
2022-09-10T04:46:49.309Z,13.50
2022-09-10T04:49:16.220Z,13.60
2022-09-10T04:51:43.188Z,13.60
2022-09-10T04:54:13.641Z,13.60
2022-09-10T04:56:40.689Z,13.60
2022-09-10T04:59:07.861Z,13.60
2022-09-10T05:01:35.312Z,13.60
2022-09-10T05:04:02.914Z,13.60
2022-09-10T05:06:29.866Z,13.60
2022-09-10T05:08:56.782Z,13.60
2022-09-10T05:11:23.920Z,13.60
2022-09-10T05:13:51.007Z,13.60
2022-09-10T05:16:17.858Z,13.60
2022-09-10T05:18:44.715Z,13.70
2022-09-10T05:21:11.630Z,13.60
2022-09-10T05:23:39.577Z,13.70
2022-09-10T05:26:06.555Z,13.70
2022-09-10T05:28:33.409Z,13.70
2022-09-10T05:31:00.217Z,13.70
2022-09-10T05:33:27.156Z,13.70
2022-09-10T05:35:53.975Z,13.70
2022-09-10T05:38:21.009Z,13.80
2022-09-10T05:40:48.333Z,13.80
2022-09-10T05:43:15.502Z,13.90
2022-09-10T05:45:42.601Z,13.90
2022-09-10T05:48:09.476Z,14.00
2022-09-10T05:50:38.561Z,14.00
2022-09-10T05:53:05.501Z,14.10
2022-09-10T05:55:33.388Z,14.10
2022-09-10T05:58:00.308Z,14.10
2022-09-10T06:00:27.201Z,14.10
2022-09-10T06:02:54.162Z,14.20
2022-09-10T06:05:23.956Z,14.20
2022-09-10T06:07:50.951Z,14.20
2022-09-10T06:10:17.783Z,14.30
2022-09-10T06:12:48.261Z,14.20
2022-09-10T06:15:15.921Z,14.30
2022-09-10T06:17:42.789Z,14.30
2022-09-10T06:20:11.271Z,14.40
2022-09-10T06:22:38.245Z,14.50
2022-09-10T06:25:06.543Z,14.50
2022-09-10T06:27:34.116Z,14.50
2022-09-10T06:30:00.944Z,14.50
2022-09-10T06:32:31.059Z,14.50
2022-09-10T06:34:57.937Z,14.60
2022-09-10T06:37:24.834Z,14.50
2022-09-10T06:39:51.744Z,14.50
2022-09-10T06:42:18.750Z,14.60
2022-09-10T06:44:45.679Z,14.60
2022-09-10T06:50:01.201Z,14.60
2022-09-10T06:52:31.072Z,14.60
2022-09-10T06:54:58.018Z,14.60
2022-09-10T06:57:27.875Z,14.60
2022-09-10T06:59:54.757Z,14.60
2022-09-10T07:02:21.682Z,14.70
2022-09-10T07:04:48.590Z,14.70
2022-09-10T07:07:15.511Z,14.70
2022-09-10T07:09:43.262Z,14.60
2022-09-10T07:12:10.134Z,14.60
2022-09-10T07:14:37.009Z,14.60
2022-09-10T07:17:03.844Z,14.60
2022-09-10T07:19:32.136Z,14.60
2022-09-10T07:21:59.029Z,14.60
2022-09-10T07:24:25.880Z,14.60
2022-09-10T07:26:52.757Z,14.70
2022-09-10T07:29:19.570Z,14.70
2022-09-10T07:31:48.310Z,14.80
2022-09-10T07:34:15.114Z,14.70
2022-09-10T07:36:41.985Z,14.80
2022-09-10T07:39:09.268Z,14.80
2022-09-10T07:41:36.145Z,14.70
2022-09-10T07:44:03.149Z,14.70
2022-09-10T07:46:30.129Z,14.70
2022-09-10T07:48:58.246Z,14.80
2022-09-10T07:51:26.015Z,14.70
2022-09-10T07:53:54.185Z,14.90
2022-09-10T07:56:21.344Z,15.00
2022-09-10T07:58:48.228Z,15.30
2022-09-10T08:01:15.359Z,15.40
2022-09-10T08:03:42.301Z,15.40
2022-09-10T08:06:09.527Z,15.50
2022-09-10T08:08:38.998Z,15.50
2022-09-10T08:11:09.843Z,15.50
2022-09-10T08:13:42.610Z,15.50
2022-09-10T08:16:10.738Z,15.70
2022-09-10T08:18:38.150Z,15.90
2022-09-10T08:21:05.877Z,15.90
2022-09-10T08:23:32.830Z,15.90
2022-09-10T08:26:00.015Z,15.90
2022-09-10T08:28:27.412Z,16.10
2022-09-10T08:31:05.386Z,16.00
2022-09-10T08:33:32.285Z,16.00
2022-09-10T08:35:59.626Z,16.10
2022-09-10T08:38:29.362Z,16.10
2022-09-10T08:40:57.724Z,16.10
2022-09-10T08:43:28.857Z,16.10
2022-09-10T08:45:56.338Z,16.30
2022-09-10T08:48:24.241Z,16.40
2022-09-10T08:50:57.373Z,16.40
2022-09-10T08:53:27.294Z,16.40
2022-09-10T08:55:57.874Z,16.40
2022-09-10T08:58:27.931Z,16.30
2022-09-10T09:00:57.670Z,16.10
2022-09-10T09:03:24.616Z,16.10
2022-09-10T09:05:54.360Z,16.10
2022-09-10T09:08:22.835Z,16.10
2022-09-10T09:10:51.253Z,16.20
2022-09-10T09:13:26.476Z,16.30
2022-09-10T09:15:59.120Z,16.30
2022-09-10T09:18:31.868Z,16.40
2022-09-10T09:21:01.648Z,16.40
2022-09-10T09:24:11.638Z,16.30
2022-09-10T09:26:37.194Z,16.30
2022-09-10T09:29:06.618Z,16.20
2022-09-10T09:31:36.756Z,16.20
2022-09-10T09:34:25.773Z,16.10
2022-09-10T09:36:54.045Z,16.20
2022-09-10T09:39:27.781Z,16.30
2022-09-10T09:42:05.927Z,16.40
2022-09-10T09:44:57.032Z,16.50
2022-09-10T09:47:24.141Z,16.60
2022-09-10T09:49:51.033Z,16.80
2022-09-10T09:52:20.207Z,16.80
2022-09-10T09:55:13.414Z,16.90
2022-09-10T09:57:37.205Z,16.90
2022-09-10T10:00:32.970Z,17.00
2022-09-10T10:03:17.688Z,16.90
2022-09-10T10:05:44.709Z,16.90
2022-09-10T10:08:34.252Z,17.00
2022-09-10T10:11:01.122Z,16.90
2022-09-10T10:13:37.710Z,16.70
2022-09-10T10:16:33.974Z,16.80
2022-09-10T10:19:00.806Z,16.60
2022-09-10T10:21:34.180Z,16.50
2022-09-10T10:24:04.208Z,16.50
2022-09-10T10:26:32.652Z,16.40
2022-09-10T10:29:00.037Z,16.40
2022-09-10T10:31:43.661Z,16.40
2022-09-10T10:34:10.468Z,16.50
2022-09-10T10:36:49.695Z,16.60
2022-09-10T10:39:31.252Z,16.70
2022-09-10T10:42:04.478Z,16.60
2022-09-10T10:44:32.424Z,16.60
2022-09-10T10:47:17.853Z,16.60
2022-09-10T10:49:47.583Z,16.60
2022-09-10T10:52:15.546Z,16.70
2022-09-10T10:54:42.660Z,16.70
2022-09-10T10:57:12.342Z,16.70
2022-09-10T10:59:39.728Z,16.60
2022-09-10T11:02:15.346Z,16.60
2022-09-10T11:04:46.101Z,16.50
2022-09-10T11:07:31.797Z,16.40
2022-09-10T11:10:00.397Z,16.40
2022-09-10T11:12:30.202Z,16.30
2022-09-10T11:15:06.373Z,16.30
2022-09-10T11:17:39.751Z,16.20
2022-09-10T11:20:28.512Z,16.20
2022-09-10T11:23:05.283Z,16.10
2022-09-10T11:25:34.568Z,16.10
2022-09-10T11:28:06.045Z,16.10
2022-09-10T11:30:34.886Z,16.20
2022-09-10T11:33:09.078Z,16.40
2022-09-10T11:35:40.970Z,16.40
2022-09-10T11:38:26.401Z,16.40
2022-09-10T11:41:08.259Z,16.40
2022-09-10T11:43:47.401Z,16.50
2022-09-10T11:46:19.898Z,16.50
2022-09-10T11:48:49.841Z,16.40
2022-09-10T11:51:24.348Z,16.30
2022-09-10T11:53:51.436Z,16.20
2022-09-10T11:56:18.241Z,16.10
2022-09-10T11:58:51.314Z,15.90
2022-09-10T12:01:30.182Z,15.70
2022-09-10T12:03:59.823Z,15.60
2022-09-10T12:06:29.522Z,15.40
2022-09-10T12:09:02.462Z,15.30
2022-09-10T12:11:32.100Z,15.30
2022-09-10T12:13:59.492Z,15.30
2022-09-10T12:16:26.372Z,15.20
2022-09-10T12:18:54.456Z,15.20
2022-09-10T12:21:39.570Z,15.30
2022-09-10T12:24:07.605Z,15.40
2022-09-10T12:26:41.516Z,15.30
2022-09-10T12:29:25.969Z,15.30
2022-09-10T12:32:08.080Z,15.30
2022-09-10T12:34:35.909Z,15.30
2022-09-10T12:37:02.717Z,15.30
2022-09-10T12:39:30.122Z,15.30
2022-09-10T12:42:22.810Z,15.40
2022-09-10T12:44:49.753Z,15.40
2022-09-10T12:47:16.654Z,15.50
2022-09-10T12:49:47.816Z,15.50
2022-09-10T12:52:34.459Z,15.50
2022-09-10T12:55:01.329Z,15.50
2022-09-10T12:57:28.128Z,15.50
2022-09-10T13:00:14.036Z,15.50
2022-09-10T13:02:44.059Z,15.50
2022-09-10T13:05:17.107Z,15.50
2022-09-10T13:07:45.329Z,15.50
2022-09-10T13:10:22.069Z,15.50
2022-09-10T13:12:51.126Z,15.50
2022-09-10T13:15:20.328Z,15.60
2022-09-10T13:17:51.228Z,15.60
2022-09-10T13:20:23.926Z,15.70
2022-09-10T13:23:04.535Z,15.70
2022-09-10T13:25:36.989Z,15.60
2022-09-10T13:28:23.811Z,15.50
2022-09-10T13:30:59.158Z,15.40
2022-09-10T13:33:29.995Z,15.60
2022-09-10T13:36:14.231Z,15.80
2022-09-10T13:38:56.137Z,15.80
2022-09-10T13:41:24.442Z,15.70
2022-09-10T13:43:51.320Z,15.50
2022-09-10T13:46:24.793Z,15.40
2022-09-10T13:48:57.432Z,15.30
2022-09-10T13:51:31.255Z,15.20
2022-09-10T13:54:05.406Z,15.00
2022-09-10T13:56:34.099Z,14.90
2022-09-10T13:59:02.256Z,14.90
2022-09-10T14:01:48.433Z,14.90
2022-09-10T14:04:22.655Z,14.90
2022-09-10T14:06:49.921Z,15.00
2022-09-10T14:09:17.305Z,14.90
2022-09-10T14:11:44.534Z,14.90
2022-09-10T14:14:14.316Z,14.90
2022-09-10T14:16:45.206Z,15.00
2022-09-10T14:19:24.394Z,15.00
2022-09-10T14:21:54.444Z,15.00
2022-09-10T14:24:45.262Z,15.00
2022-09-10T14:27:24.936Z,15.00
2022-09-10T14:29:52.719Z,15.00
2022-09-10T14:32:33.510Z,15.00
2022-09-10T14:35:20.344Z,15.00
2022-09-10T14:37:47.646Z,15.00
2022-09-10T14:40:20.241Z,15.00
2022-09-10T14:42:48.440Z,15.10
2022-09-10T14:45:35.872Z,15.10
2022-09-10T14:48:03.130Z,15.20
2022-09-10T14:50:31.749Z,15.30
2022-09-10T14:52:59.154Z,15.30
2022-09-10T14:55:27.129Z,15.40
2022-09-10T14:57:55.679Z,15.50
2022-09-10T15:00:23.237Z,15.60
2022-09-10T15:02:51.398Z,15.60
2022-09-10T15:05:18.565Z,15.70
2022-09-10T15:07:45.554Z,15.80
2022-09-10T15:10:12.559Z,15.80
2022-09-10T15:12:40.742Z,15.80
2022-09-10T15:15:16.859Z,15.80
2022-09-10T15:17:45.437Z,15.80
2022-09-10T15:20:13.582Z,15.80
2022-09-10T15:22:40.554Z,15.90
2022-09-10T15:25:10.515Z,15.90
2022-09-10T15:27:38.190Z,15.90
2022-09-10T15:30:05.560Z,16.00
2022-09-10T15:32:32.501Z,16.00
2022-09-10T15:35:01.346Z,16.10
2022-09-10T15:37:30.591Z,16.20
2022-09-10T15:39:57.693Z,16.20
2022-09-10T15:42:24.880Z,16.20
2022-09-10T15:44:53.821Z,16.20
2022-09-10T15:47:21.231Z,16.20
2022-09-10T15:49:48.218Z,16.20
2022-09-10T15:52:15.072Z,16.20
2022-09-10T15:54:43.954Z,16.20
2022-09-10T15:57:10.874Z,16.10
2022-09-10T15:59:37.701Z,16.10
2022-09-10T16:02:06.657Z,16.10
2022-09-10T16:04:36.177Z,16.00
2022-09-10T16:07:03.775Z,16.00
2022-09-10T16:09:30.704Z,16.00
2022-09-10T16:11:57.570Z,16.00
2022-09-10T16:14:24.406Z,15.90
2022-09-10T16:16:51.477Z,15.90
2022-09-10T16:19:18.452Z,15.90
2022-09-10T16:21:48.653Z,15.90
2022-09-10T16:24:15.799Z,15.90
2022-09-10T16:26:43.819Z,15.90
2022-09-10T16:29:15.124Z,15.90
2022-09-10T16:31:42.318Z,15.90
2022-09-10T16:34:11.242Z,15.90
2022-09-10T16:36:38.663Z,15.90
2022-09-10T16:39:12.338Z,15.90
2022-09-10T16:41:41.736Z,15.80
2022-09-10T16:44:09.324Z,15.80
2022-09-10T16:46:36.555Z,15.80
2022-09-10T16:49:03.481Z,15.80
2022-09-10T16:51:30.411Z,15.80
2022-09-10T16:53:58.750Z,15.80
2022-09-10T16:56:26.010Z,15.70
2022-09-10T16:58:53.326Z,15.70
2022-09-10T17:01:21.517Z,15.70
2022-09-10T17:03:55.105Z,15.70
2022-09-10T17:06:26.852Z,15.70
2022-09-10T17:08:54.760Z,15.70
2022-09-10T17:11:22.896Z,15.60
2022-09-10T17:13:51.073Z,15.60
2022-09-10T17:16:20.898Z,15.60
2022-09-10T17:18:48.583Z,15.60
2022-09-10T17:21:15.450Z,15.60
2022-09-10T17:23:43.321Z,15.60
2022-09-10T17:26:10.203Z,15.60
2022-09-10T17:28:37.407Z,15.60
2022-09-10T17:31:04.613Z,15.50
2022-09-10T17:33:33.612Z,15.50
2022-09-10T17:36:01.471Z,15.50
2022-09-10T17:38:29.404Z,15.50
2022-09-10T17:41:01.614Z,15.50
2022-09-10T17:43:29.401Z,15.50
2022-09-10T17:45:56.336Z,15.50
2022-09-10T17:48:26.386Z,15.50
2022-09-10T17:50:55.067Z,15.40
2022-09-10T17:53:21.973Z,15.40
2022-09-10T17:55:48.896Z,15.40
2022-09-10T17:58:16.974Z,15.40
2022-09-10T18:00:48.844Z,15.40
2022-09-10T18:03:17.721Z,15.40
2022-09-10T18:05:45.977Z,15.40
2022-09-10T18:08:13.369Z,15.40
2022-09-10T18:10:40.387Z,15.40
2022-09-10T18:13:08.328Z,15.40
2022-09-10T18:15:40.336Z,15.30
2022-09-10T18:18:07.206Z,15.30
2022-09-10T18:20:34.134Z,15.30
2022-09-10T18:23:01.242Z,15.30
2022-09-10T18:25:34.275Z,15.30
2022-09-10T18:28:04.008Z,15.30
2022-09-10T18:30:32.851Z,15.30
2022-09-10T18:33:00.320Z,15.30
2022-09-10T18:35:27.710Z,15.30
2022-09-10T18:37:57.007Z,15.30
2022-09-10T18:40:23.984Z,15.30
2022-09-10T18:42:50.852Z,15.30
2022-09-10T18:45:17.821Z,15.30
2022-09-10T18:47:45.497Z,15.30
2022-09-10T18:50:13.399Z,15.30
2022-09-10T18:52:40.411Z,15.30
2022-09-10T18:55:07.433Z,15.30
2022-09-10T18:57:34.288Z,15.30
2022-09-10T19:00:01.364Z,15.30
2022-09-10T19:02:28.493Z,15.30
2022-09-10T19:05:10.829Z,15.30
2022-09-10T19:07:38.898Z,15.30
2022-09-10T19:10:07.206Z,15.30
2022-09-10T19:12:34.327Z,15.20
2022-09-10T19:15:01.993Z,15.20
2022-09-10T19:17:28.891Z,15.20
2022-09-10T19:19:55.825Z,15.30
2022-09-10T19:22:22.777Z,15.30
2022-09-10T19:24:55.037Z,15.30
2022-09-10T19:27:22.755Z,15.30
2022-09-10T19:29:50.410Z,15.30
2022-09-10T19:32:19.857Z,15.30
2022-09-10T19:34:51.617Z,15.30
2022-09-10T19:37:19.747Z,15.30
2022-09-10T19:39:47.709Z,15.30
2022-09-10T19:42:14.712Z,15.30
2022-09-10T19:44:41.570Z,15.30
2022-09-10T19:47:08.497Z,15.30
2022-09-10T19:49:35.410Z,15.30
2022-09-10T19:52:11.219Z,15.20
2022-09-10T19:54:38.088Z,15.30
2022-09-10T19:57:04.939Z,15.20
2022-09-10T19:59:31.899Z,15.20
2022-09-10T20:01:58.842Z,15.20
2022-09-10T20:04:28.870Z,15.20
2022-09-10T20:06:55.754Z,15.20
2022-09-10T20:09:22.594Z,15.10
2022-09-10T20:11:49.489Z,15.20
2022-09-10T20:14:16.898Z,15.20
2022-09-10T20:16:45.598Z,15.20
2022-09-10T20:19:13.627Z,15.20
2022-09-10T20:21:40.713Z,15.20
2022-09-10T20:24:11.201Z,15.20
2022-09-10T20:26:38.613Z,15.20
2022-09-10T20:29:18.052Z,15.20
2022-09-10T20:31:46.361Z,15.20
2022-09-10T20:34:16.156Z,15.20
2022-09-10T20:36:43.167Z,15.20
2022-09-10T20:39:12.065Z,15.20
2022-09-10T20:41:40.161Z,15.20
2022-09-10T20:44:07.186Z,15.20
2022-09-10T20:46:34.661Z,15.20
2022-09-10T20:49:04.771Z,15.20
2022-09-10T20:51:32.860Z,15.10
2022-09-10T20:53:59.796Z,15.10
2022-09-10T20:56:26.780Z,15.10
2022-09-10T20:58:53.679Z,15.20
2022-09-10T21:01:21.734Z,15.10
2022-09-10T21:03:49.599Z,15.20
2022-09-10T21:06:19.455Z,15.20
2022-09-10T21:08:50.192Z,15.20
2022-09-10T21:11:18.007Z,15.20
2022-09-10T21:13:46.166Z,15.10
2022-09-10T21:16:14.750Z,15.10
2022-09-10T21:18:49.738Z,15.10
2022-09-10T21:21:20.963Z,15.10
2022-09-10T21:23:49.402Z,15.10
2022-09-10T21:26:17.800Z,15.10
2022-09-10T21:28:47.498Z,15.10
2022-09-10T21:31:14.430Z,15.10
2022-09-10T21:33:41.881Z,15.00
2022-09-10T21:36:12.823Z,15.10
2022-09-10T21:38:41.653Z,15.10
2022-09-10T21:41:13.550Z,15.00
2022-09-10T21:43:42.736Z,15.00
2022-09-10T21:46:10.162Z,15.00
2022-09-10T21:48:37.186Z,15.00
2022-09-10T21:51:05.961Z,15.00
2022-09-10T21:53:33.643Z,15.00
2022-09-10T21:56:01.181Z,15.00
2022-09-10T21:58:28.789Z,15.00
2022-09-10T22:00:59.558Z,15.00
2022-09-10T22:03:27.098Z,15.00
2022-09-10T22:06:06.121Z,15.00
2022-09-10T22:08:33.520Z,15.00
2022-09-10T22:11:04.349Z,15.00
2022-09-10T22:13:31.264Z,15.00
2022-09-10T22:15:58.469Z,15.00
2022-09-10T22:18:26.352Z,15.00
2022-09-10T22:21:00.878Z,15.00
2022-09-10T22:23:38.356Z,15.00
2022-09-10T22:26:06.378Z,15.00
2022-09-10T22:28:34.946Z,15.00
2022-09-10T22:31:12.498Z,15.00
2022-09-10T22:33:43.621Z,15.00
2022-09-10T22:36:13.609Z,15.00
2022-09-10T22:38:41.224Z,15.00
2022-09-10T22:41:10.309Z,15.00
2022-09-10T22:43:38.564Z,14.90
2022-09-10T22:46:07.278Z,14.90
2022-09-10T22:48:35.168Z,14.90
2022-09-10T22:51:02.448Z,14.90
2022-09-10T22:53:29.333Z,15.00
2022-09-10T22:55:56.296Z,14.90
2022-09-10T22:58:23.250Z,15.00
2022-09-10T23:00:50.100Z,15.00
2022-09-10T23:03:16.988Z,15.00
2022-09-10T23:05:43.907Z,15.00
2022-09-10T23:08:11.096Z,15.00
2022-09-10T23:10:38.920Z,15.00
2022-09-10T23:13:05.976Z,15.00
2022-09-10T23:15:33.102Z,15.00
2022-09-10T23:17:59.993Z,15.00
2022-09-10T23:20:27.405Z,15.00
2022-09-10T23:22:54.220Z,15.00
2022-09-10T23:25:21.263Z,15.00
2022-09-10T23:27:53.040Z,15.00
2022-09-10T23:30:19.961Z,15.00
2022-09-10T23:32:47.019Z,15.00
2022-09-10T23:35:13.907Z,15.00
2022-09-10T23:37:40.781Z,15.00
2022-09-10T23:40:08.544Z,15.10
2022-09-10T23:42:35.628Z,15.10
2022-09-10T23:45:02.557Z,15.10
2022-09-10T23:47:29.426Z,15.10
2022-09-10T23:49:57.224Z,15.10
2022-09-10T23:52:24.059Z,15.10
2022-09-10T23:54:51.494Z,15.10
2022-09-10T23:57:18.439Z,15.10
2022-09-10T23:59:45.255Z,15.10
